West Branch, New York
Current Conditions -  °F | °C
As of 8:53 PM on Saturday 22 Nov 2014 (Local Time) from KRME Reporting Station
Overcast Overcast  
Wind Chill: 29°   Ceiling: 2300
Heat Index: 35°   Visibility: 10mi
Dew Point: 33°   Wind: 8mph
Humidity: 92%   Direction: 80°E
Pressure: 30.05"   Gusts: NA
Location:  43.3661°N, 75.4626°W
Report Text: KRME 230153Z 08007KT 10SM OVC023 02/01 A3005 RMK AO2 RAE47 SLP182 P0002 T00170006
Loading
Personal Weather Stations






























Interactive Weather Map New forecast layout! Learn more

10-Day Weather Forecast

Advertisements
Track Severe Weather on mobile